createdAt,value
2022-12-31T00:02:15.287Z,4.39
2022-12-31T00:05:18.036Z,4.46
2022-12-31T00:08:20.579Z,4.41
2022-12-31T00:11:24.605Z,4.39
2022-12-31T00:14:26.803Z,4.31
2022-12-31T00:17:30.257Z,4.25
2022-12-31T00:20:32.749Z,4.27
2022-12-31T00:23:36.539Z,4.26
2022-12-31T00:26:38.774Z,4.37
2022-12-31T00:29:41.298Z,4.46
2022-12-31T00:32:43.665Z,4.61
2022-12-31T00:35:46.337Z,4.62
2022-12-31T00:38:50.171Z,4.53
2022-12-31T00:41:52.696Z,4.54
2022-12-31T00:44:55.054Z,4.57
2022-12-31T00:47:57.684Z,4.59
2022-12-31T00:51:01.190Z,4.55
2022-12-31T00:54:03.993Z,4.54
2022-12-31T00:57:06.216Z,4.47
2022-12-31T01:00:09.610Z,4.47
2022-12-31T01:03:11.997Z,4.48
2022-12-31T01:06:15.433Z,4.52
2022-12-31T01:09:18.005Z,4.38
2022-12-31T01:12:21.046Z,4.40
2022-12-31T01:15:23.607Z,4.41
2022-12-31T01:18:26.438Z,4.39
2022-12-31T01:21:29.526Z,4.37
2022-12-31T01:24:32.593Z,4.44
2022-12-31T01:27:34.924Z,4.50
2022-12-31T01:30:41.825Z,4.51
2022-12-31T01:33:45.061Z,4.48
2022-12-31T01:36:47.600Z,4.57
2022-12-31T01:39:49.920Z,4.60
2022-12-31T01:42:57.218Z,4.58
2022-12-31T01:45:59.631Z,4.54
2022-12-31T01:49:10.114Z,4.54
2022-12-31T01:52:18.145Z,4.64
2022-12-31T01:55:32.540Z,4.69
2022-12-31T01:58:49.669Z,4.66
2022-12-31T02:01:52.782Z,4.61
2022-12-31T02:04:58.976Z,4.53
2022-12-31T02:08:03.203Z,4.67
2022-12-31T02:11:31.172Z,4.69
2022-12-31T02:14:43.203Z,4.69
2022-12-31T02:18:01.564Z,4.76
2022-12-31T02:21:38.155Z,4.68
2022-12-31T02:25:06.091Z,4.68
2022-12-31T02:28:28.226Z,4.73
2022-12-31T02:31:33.908Z,4.53
2022-12-31T02:34:47.876Z,4.56
2022-12-31T02:37:57.333Z,4.68
2022-12-31T02:41:00.703Z,4.73
2022-12-31T02:44:19.606Z,4.82
2022-12-31T02:47:27.601Z,4.81
2022-12-31T02:50:36.845Z,4.66
2022-12-31T02:54:26.748Z,4.68
2022-12-31T02:57:40.019Z,4.68
2022-12-31T03:01:16.658Z,4.73
2022-12-31T03:04:32.056Z,4.78
2022-12-31T03:07:34.851Z,4.79
2022-12-31T03:10:37.474Z,4.82
2022-12-31T03:13:39.631Z,4.80
2022-12-31T03:16:42.114Z,4.70
2022-12-31T03:20:03.049Z,4.66
2022-12-31T03:23:06.940Z,4.62
2022-12-31T03:26:11.425Z,4.71
2022-12-31T03:29:14.405Z,4.71
2022-12-31T03:32:17.643Z,4.65
2022-12-31T03:35:21.767Z,4.70
2022-12-31T03:38:24.092Z,4.70
2022-12-31T03:41:26.746Z,4.74
2022-12-31T03:44:28.877Z,4.76
2022-12-31T03:47:31.598Z,4.70
2022-12-31T03:50:34.907Z,4.77
2022-12-31T03:53:37.456Z,4.72
2022-12-31T03:56:39.677Z,4.69
2022-12-31T03:59:42.248Z,4.72
2022-12-31T04:02:45.357Z,4.79
2022-12-31T04:05:55.694Z,4.80
2022-12-31T04:08:57.998Z,4.78
2022-12-31T04:12:00.638Z,4.73
2022-12-31T04:15:05.350Z,4.87
2022-12-31T04:18:07.875Z,4.94
2022-12-31T04:21:10.445Z,4.83
2022-12-31T04:24:12.930Z,4.93
2022-12-31T04:27:15.789Z,4.95
2022-12-31T04:30:18.570Z,4.89
2022-12-31T04:33:20.754Z,4.93
2022-12-31T04:36:23.454Z,4.85
2022-12-31T04:39:25.925Z,4.92
2022-12-31T04:42:28.448Z,4.88
2022-12-31T04:45:30.718Z,4.91
2022-12-31T04:48:34.072Z,4.79
2022-12-31T04:51:36.685Z,4.77
2022-12-31T04:54:39.357Z,4.75
2022-12-31T04:57:42.154Z,4.86
2022-12-31T05:00:46.128Z,4.78
2022-12-31T05:03:49.296Z,4.88
2022-12-31T05:06:51.918Z,4.92
2022-12-31T05:09:54.238Z,4.98
2022-12-31T05:12:56.817Z,4.91
2022-12-31T05:15:59.078Z,4.94
2022-12-31T05:19:01.587Z,4.82
2022-12-31T05:22:22.826Z,4.78
2022-12-31T05:25:25.527Z,4.76
2022-12-31T05:28:27.897Z,4.84
2022-12-31T05:31:30.409Z,4.80
2022-12-31T05:34:32.635Z,4.88
2022-12-31T05:37:35.336Z,4.95
2022-12-31T05:40:37.759Z,4.80
2022-12-31T05:43:40.894Z,4.71
2022-12-31T05:46:43.166Z,4.78
2022-12-31T05:49:45.821Z,4.83
2022-12-31T05:52:48.155Z,4.81
2022-12-31T05:55:50.617Z,4.67
2022-12-31T05:58:52.761Z,4.67
2022-12-31T06:01:55.255Z,4.58
2022-12-31T06:04:57.825Z,4.68
2022-12-31T06:08:00.050Z,4.63
2022-12-31T06:11:02.785Z,4.56
2022-12-31T06:14:05.233Z,4.57
2022-12-31T06:17:07.786Z,4.41
2022-12-31T06:20:13.074Z,4.48
2022-12-31T06:23:15.949Z,4.50
2022-12-31T06:26:18.190Z,4.50
2022-12-31T06:29:20.753Z,4.55
2022-12-31T06:32:22.990Z,4.55
2022-12-31T06:35:25.729Z,4.40
2022-12-31T06:38:30.844Z,4.44
2022-12-31T06:41:33.603Z,4.47
2022-12-31T06:44:35.824Z,4.53
2022-12-31T06:47:38.466Z,4.58
2022-12-31T06:50:41.538Z,4.57
2022-12-31T06:53:45.480Z,4.65
2022-12-31T06:56:48.028Z,4.59
2022-12-31T06:59:51.364Z,4.66
2022-12-31T07:03:22.885Z,4.63
2022-12-31T07:06:44.877Z,4.72
2022-12-31T07:10:17.816Z,4.59
2022-12-31T07:13:35.343Z,4.65
2022-12-31T07:16:40.649Z,4.67
2022-12-31T07:19:57.750Z,4.61
2022-12-31T07:23:00.524Z,4.56
2022-12-31T07:26:23.080Z,4.60
2022-12-31T07:29:32.926Z,4.57
2022-12-31T07:32:44.525Z,4.72
2022-12-31T07:36:11.478Z,4.67
2022-12-31T07:39:23.516Z,4.82
2022-12-31T07:42:55.964Z,4.74
2022-12-31T07:46:26.207Z,4.77
2022-12-31T07:49:30.130Z,4.72
2022-12-31T07:52:33.440Z,4.77
2022-12-31T07:55:35.991Z,4.82
2022-12-31T07:59:11.049Z,4.86
2022-12-31T08:02:50.922Z,4.93
2022-12-31T08:06:08.758Z,5.05
2022-12-31T08:09:39.247Z,5.18
2022-12-31T08:12:42.291Z,5.16
2022-12-31T08:15:45.053Z,5.20
2022-12-31T08:18:47.858Z,5.19
2022-12-31T08:22:03.910Z,5.13
2022-12-31T08:25:21.723Z,5.16
2022-12-31T08:28:38.898Z,5.16
2022-12-31T08:32:20.678Z,5.27
2022-12-31T08:35:28.757Z,5.25
2022-12-31T08:38:34.140Z,5.32
2022-12-31T08:41:45.945Z,5.37
2022-12-31T08:45:22.870Z,5.39
2022-12-31T08:48:35.756Z,5.33
2022-12-31T08:51:38.560Z,5.46
2022-12-31T08:54:41.521Z,5.56
2022-12-31T08:58:05.589Z,5.55
2022-12-31T09:01:08.691Z,5.65
2022-12-31T09:04:29.997Z,5.67
2022-12-31T09:08:06.152Z,5.60
2022-12-31T09:11:40.603Z,5.69
2022-12-31T09:14:57.769Z,5.70
2022-12-31T09:18:00.631Z,5.72
2022-12-31T09:21:04.335Z,5.72
2022-12-31T09:24:09.516Z,5.72
2022-12-31T09:27:35.493Z,5.71
2022-12-31T09:30:50.255Z,5.78
2022-12-31T09:34:00.151Z,5.75
2022-12-31T09:37:12.158Z,5.74
2022-12-31T09:40:17.350Z,5.70
2022-12-31T09:43:45.321Z,5.71
2022-12-31T09:47:24.244Z,5.71
2022-12-31T09:50:39.979Z,5.72
2022-12-31T09:54:18.693Z,5.75
2022-12-31T09:57:40.025Z,5.90
2022-12-31T10:00:52.283Z,6.05
2022-12-31T10:04:40.829Z,6.14
2022-12-31T10:08:22.295Z,6.20
2022-12-31T10:11:44.092Z,6.35
2022-12-31T10:14:52.628Z,6.36
2022-12-31T10:18:04.342Z,6.40
2022-12-31T10:21:24.982Z,6.38
2022-12-31T10:25:08.525Z,6.51
2022-12-31T10:28:18.907Z,6.56
2022-12-31T10:32:01.927Z,6.62
2022-12-31T10:35:29.309Z,6.64
2022-12-31T10:38:56.025Z,6.69
2022-12-31T10:42:28.520Z,6.77
2022-12-31T10:45:52.782Z,6.91
2022-12-31T10:49:21.254Z,6.90
2022-12-31T10:52:53.063Z,7.00
2022-12-31T10:55:59.018Z,6.98
2022-12-31T10:59:46.889Z,6.91
2022-12-31T11:03:30.848Z,6.89
2022-12-31T11:07:08.227Z,6.90
2022-12-31T11:10:13.716Z,6.95
2022-12-31T11:13:18.962Z,6.87
2022-12-31T11:16:36.677Z,6.87
2022-12-31T11:19:46.681Z,6.87
2022-12-31T11:23:10.694Z,6.88
2022-12-31T11:26:31.864Z,6.91
2022-12-31T11:29:57.315Z,6.95
2022-12-31T11:33:27.821Z,7.01
2022-12-31T11:37:07.942Z,7.06
2022-12-31T11:40:24.771Z,7.14
2022-12-31T11:43:40.991Z,7.07
2022-12-31T11:47:01.738Z,7.10
2022-12-31T11:50:13.524Z,7.15
2022-12-31T11:53:42.967Z,7.11
2022-12-31T11:57:02.844Z,7.22
2022-12-31T12:00:19.586Z,7.35
2022-12-31T12:03:24.505Z,7.32
2022-12-31T12:06:32.890Z,7.37
2022-12-31T12:09:35.785Z,7.37
2022-12-31T12:12:42.847Z,7.30
2022-12-31T12:15:51.865Z,7.30
2022-12-31T12:19:05.218Z,7.38
2022-12-31T12:22:22.004Z,7.48
2022-12-31T12:25:27.405Z,7.43
2022-12-31T12:28:44.296Z,7.54
2022-12-31T12:32:19.566Z,7.61
2022-12-31T12:35:29.241Z,7.57
2022-12-31T12:38:31.508Z,7.70
2022-12-31T12:41:34.556Z,7.79
2022-12-31T12:44:37.150Z,7.88
2022-12-31T12:47:43.091Z,7.90
2022-12-31T12:50:48.251Z,7.97
2022-12-31T12:54:11.426Z,7.90
2022-12-31T12:57:52.825Z,7.87
2022-12-31T13:01:12.065Z,7.97
2022-12-31T13:04:54.100Z,7.96
2022-12-31T13:08:34.571Z,8.00
2022-12-31T13:11:42.702Z,8.03
2022-12-31T13:14:54.280Z,8.00
2022-12-31T13:18:18.132Z,7.93
2022-12-31T13:21:30.946Z,7.87
2022-12-31T13:24:57.603Z,7.89
2022-12-31T13:28:06.457Z,7.88
2022-12-31T13:31:15.310Z,7.95
2022-12-31T13:34:25.759Z,7.91
2022-12-31T13:37:36.569Z,7.99
2022-12-31T13:41:05.715Z,7.98
2022-12-31T13:44:38.668Z,8.02
2022-12-31T13:47:48.349Z,8.03
2022-12-31T13:51:15.138Z,8.03
2022-12-31T13:54:31.925Z,7.87
2022-12-31T13:58:03.712Z,7.85
2022-12-31T14:01:15.408Z,7.83
2022-12-31T14:04:45.178Z,7.77
2022-12-31T14:07:54.012Z,7.82
2022-12-31T14:11:22.864Z,7.75
2022-12-31T14:14:42.243Z,7.79
2022-12-31T14:17:59.884Z,7.78
2022-12-31T14:21:12.330Z,7.75
2022-12-31T14:24:45.958Z,7.80
2022-12-31T14:27:52.278Z,7.87
2022-12-31T14:31:07.877Z,7.87
2022-12-31T14:34:32.049Z,7.82
2022-12-31T14:37:34.547Z,7.82
2022-12-31T14:41:01.348Z,7.75
2022-12-31T14:44:22.497Z,7.61
2022-12-31T14:47:44.250Z,7.55
2022-12-31T14:50:47.338Z,7.53
2022-12-31T14:53:54.198Z,7.50
2022-12-31T14:56:56.902Z,7.44
2022-12-31T15:00:01.347Z,7.46
2022-12-31T15:03:05.486Z,7.40
2022-12-31T15:06:22.690Z,7.35
2022-12-31T15:09:46.590Z,7.31
2022-12-31T15:12:59.917Z,7.36
2022-12-31T15:16:24.291Z,7.33
2022-12-31T15:19:45.180Z,7.32
2022-12-31T15:22:51.093Z,7.22
2022-12-31T15:25:59.206Z,7.21
2022-12-31T15:29:05.070Z,7.23
2022-12-31T15:32:16.552Z,7.21
2022-12-31T15:35:22.305Z,7.25
2022-12-31T15:38:34.847Z,7.21
2022-12-31T15:42:18.200Z,7.22
2022-12-31T15:45:11.745Z,7.22
2022-12-31T15:48:23.743Z,7.26
2022-12-31T15:51:30.610Z,7.26
2022-12-31T15:54:42.507Z,7.26
2022-12-31T15:57:44.957Z,7.19
2022-12-31T16:00:58.870Z,7.20
2022-12-31T16:04:12.327Z,7.24
2022-12-31T16:07:15.925Z,7.18
2022-12-31T16:10:26.932Z,7.21
2022-12-31T16:13:33.247Z,7.23
2022-12-31T16:16:36.061Z,7.26
2022-12-31T16:19:44.505Z,7.19
2022-12-31T16:22:52.484Z,7.19
2022-12-31T16:25:58.872Z,7.25
2022-12-31T16:29:05.145Z,7.21
2022-12-31T16:32:16.203Z,7.24
2022-12-31T16:35:25.164Z,7.20
2022-12-31T16:38:37.890Z,7.21
2022-12-31T16:41:43.910Z,7.24
2022-12-31T16:44:47.510Z,7.23
2022-12-31T16:47:50.383Z,7.19
2022-12-31T16:50:54.760Z,7.26
2022-12-31T16:53:59.155Z,7.31
2022-12-31T16:57:01.835Z,7.26
2022-12-31T17:00:06.797Z,7.28
2022-12-31T17:03:20.305Z,7.31
2022-12-31T17:06:23.254Z,7.33
2022-12-31T17:09:38.052Z,7.33
2022-12-31T17:13:17.431Z,7.41
2022-12-31T17:16:06.236Z,7.42
2022-12-31T17:19:32.708Z,7.45
2022-12-31T17:22:42.585Z,7.38
2022-12-31T17:25:45.176Z,7.31
2022-12-31T17:28:51.012Z,7.34
2022-12-31T17:32:05.504Z,7.31
2022-12-31T17:35:28.397Z,7.24
2022-12-31T17:38:33.087Z,7.20
2022-12-31T17:41:35.920Z,7.15
2022-12-31T17:44:42.512Z,7.15
2022-12-31T17:47:51.061Z,7.12
2022-12-31T17:50:56.361Z,7.14
2022-12-31T17:54:00.773Z,7.11
2022-12-31T17:57:03.475Z,7.09
2022-12-31T18:00:06.886Z,7.07
2022-12-31T18:03:14.520Z,7.02
2022-12-31T18:06:19.445Z,6.96
2022-12-31T18:09:21.864Z,6.95
2022-12-31T18:12:25.063Z,6.85
2022-12-31T18:15:27.361Z,6.84
2022-12-31T18:18:35.864Z,6.87
2022-12-31T18:21:38.173Z,6.73
2022-12-31T18:24:41.034Z,6.72
2022-12-31T18:27:43.841Z,6.69
2022-12-31T18:30:48.039Z,6.68
2022-12-31T18:33:51.711Z,6.68
2022-12-31T18:36:54.267Z,6.67
2022-12-31T18:39:56.729Z,6.64
2022-12-31T18:43:04.655Z,6.64
2022-12-31T18:46:12.646Z,6.62
2022-12-31T18:49:15.701Z,6.55
2022-12-31T18:52:20.910Z,6.48
2022-12-31T18:55:38.903Z,6.46
2022-12-31T18:58:41.775Z,6.35
2022-12-31T19:01:44.643Z,6.35
2022-12-31T19:04:48.006Z,6.30
2022-12-31T19:07:50.766Z,6.27
2022-12-31T19:10:54.131Z,6.36
2022-12-31T19:13:56.707Z,6.32
2022-12-31T19:20:04.461Z,6.21
2022-12-31T19:23:13.101Z,6.22
2022-12-31T19:26:20.048Z,6.19
2022-12-31T19:29:25.324Z,6.24
2022-12-31T19:32:28.240Z,6.19
2022-12-31T19:35:30.589Z,6.24
2022-12-31T19:38:33.787Z,6.19
2022-12-31T19:41:36.008Z,6.16
2022-12-31T19:44:38.540Z,6.15
2022-12-31T19:47:40.892Z,6.02
2022-12-31T19:50:46.210Z,5.90
2022-12-31T19:53:49.332Z,5.88
2022-12-31T19:56:52.030Z,5.93
2022-12-31T19:59:54.197Z,5.94
2022-12-31T20:02:57.182Z,5.94
2022-12-31T20:06:08.465Z,5.85
2022-12-31T20:09:11.557Z,5.85
2022-12-31T20:12:14.597Z,5.76
2022-12-31T20:15:17.087Z,5.70
2022-12-31T20:18:21.226Z,5.73
2022-12-31T20:21:28.383Z,5.69
2022-12-31T20:24:30.961Z,5.69
2022-12-31T20:27:33.563Z,5.74
2022-12-31T20:30:39.660Z,5.77
2022-12-31T20:33:42.645Z,5.80
2022-12-31T20:36:45.448Z,5.80
2022-12-31T20:39:47.673Z,5.81
2022-12-31T20:42:50.289Z,5.78
2022-12-31T20:45:52.696Z,5.85
2022-12-31T20:48:58.829Z,5.93
2022-12-31T20:52:01.077Z,5.93
2022-12-31T20:55:03.997Z,5.92
2022-12-31T20:58:06.536Z,5.81
2022-12-31T21:01:10.647Z,5.74
2022-12-31T21:04:13.225Z,5.74
2022-12-31T21:07:15.919Z,5.70
2022-12-31T21:10:18.232Z,5.57
2022-12-31T21:13:24.390Z,5.58
2022-12-31T21:16:27.000Z,5.57
2022-12-31T21:19:29.552Z,5.62
2022-12-31T21:22:33.906Z,5.47
2022-12-31T21:25:36.481Z,5.49
2022-12-31T21:28:39.111Z,5.34
2022-12-31T21:31:41.689Z,5.42
2022-12-31T21:34:43.860Z,5.44
2022-12-31T21:37:58.628Z,5.42
2022-12-31T21:41:04.136Z,5.44
2022-12-31T21:44:08.781Z,5.40
2022-12-31T21:47:42.549Z,5.35
2022-12-31T21:50:52.287Z,5.31
2022-12-31T21:53:54.968Z,5.24
2022-12-31T21:56:57.792Z,5.25
2022-12-31T22:00:41.158Z,5.24
2022-12-31T22:03:41.290Z,5.22
2022-12-31T22:06:43.490Z,5.16
2022-12-31T22:09:46.144Z,5.13
2022-12-31T22:12:48.505Z,5.13
2022-12-31T22:16:00.243Z,5.17
2022-12-31T22:19:06.756Z,5.15
2022-12-31T22:22:09.272Z,5.10
2022-12-31T22:25:11.554Z,4.98
2022-12-31T22:31:36.417Z,4.92
2022-12-31T22:34:39.063Z,5.13
2022-12-31T22:37:59.610Z,5.01
2022-12-31T22:41:07.152Z,5.07
2022-12-31T22:44:09.350Z,5.14
2022-12-31T22:47:11.972Z,5.15
2022-12-31T22:50:14.574Z,5.15
2022-12-31T22:53:17.135Z,5.18
2022-12-31T22:56:19.657Z,5.14
2022-12-31T22:59:23.820Z,5.08
2022-12-31T23:02:26.491Z,5.07
2022-12-31T23:05:29.004Z,4.99
2022-12-31T23:08:31.443Z,4.87
2022-12-31T23:11:35.967Z,4.80
2022-12-31T23:14:56.978Z,4.78
2022-12-31T23:18:18.429Z,4.78
2022-12-31T23:21:39.360Z,4.76
2022-12-31T23:24:42.506Z,4.78
2022-12-31T23:27:45.446Z,4.70
2022-12-31T23:30:48.660Z,4.61
2022-12-31T23:33:51.057Z,4.63
2022-12-31T23:36:55.279Z,4.42
2022-12-31T23:39:57.865Z,4.46
2022-12-31T23:43:02.936Z,4.55
2022-12-31T23:46:05.252Z,4.60
2022-12-31T23:49:08.997Z,4.61
2022-12-31T23:52:11.288Z,4.59
2022-12-31T23:55:14.244Z,4.72
2022-12-31T23:58:17.194Z,4.76
